Time;durP1;ratioP1;P1;durP2;ratioP2;P2;SDS_P1;SDS_P2;PMS_P1;PMS_P2;Temp;Humidity;BMP_temperature;BMP_pressure;BME280_temperature;BME280_humidity;BME280_pressure;Samples;Min_cycle;Max_cycle;Signal;HPM_P1;HPM_P2
2022/07/23 00:01:57;;;;;;;9.53;8.53;;;24.10;61.60;25.30;100939.00;;;;5071676;28;20756;-41
2022/07/23 00:04:23;;;;;;;10.53;9.53;;;24.20;60.90;25.30;100943.00;;;;5071637;28;20172;-42
2022/07/23 00:06:49;;;;;;;11.27;10.17;;;24.10;61.30;25.30;100968.00;;;;5071482;28;20162;-41
2022/07/23 00:09:15;;;;;;;10.03;9.13;;;24.10;61.70;25.20;100957.00;;;;5071400;28;20200;-42
2022/07/23 00:11:40;;;;;;;10.70;9.80;;;24.00;61.40;25.20;100959.00;;;;5071480;28;20173;-43
2022/07/23 00:14:06;;;;;;;11.07;10.17;;;24.00;61.90;25.20;100950.00;;;;5070408;28;20166;-41
2022/07/23 00:16:32;;;;;;;11.53;10.07;;;24.10;61.90;25.20;100959.00;;;;5071568;28;20177;-41
2022/07/23 00:19:01;;;;;;;11.13;10.10;;;23.90;62.20;25.10;100956.00;;;;5071277;28;20197;-42
2022/07/23 00:21:26;;;;;;;10.53;9.50;;;23.90;62.30;25.10;100949.00;;;;5071646;28;20223;-41
2022/07/23 00:23:52;;;;;;;11.03;10.00;;;24.00;62.00;25.10;100952.00;;;;5071423;28;20178;-42
2022/07/23 00:26:18;;;;;;;10.03;9.13;;;23.90;62.10;25.10;100949.00;;;;5071315;28;20177;-42
2022/07/23 00:28:43;;;;;;;12.13;11.10;;;23.80;62.10;25.00;100958.00;;;;5071167;28;20689;-41
2022/07/23 00:31:09;;;;;;;12.90;11.63;;;23.70;63.10;25.00;100962.00;;;;5071385;28;20181;-42
2022/07/23 00:33:35;;;;;;;11.90;10.80;;;23.60;63.50;24.90;100960.00;;;;5075430;28;20191;-41
2022/07/23 00:36:01;;;;;;;11.70;10.57;;;23.50;64.10;24.90;100954.00;;;;5070622;28;20597;-41
2022/07/23 00:38:26;;;;;;;11.30;10.30;;;23.70;63.60;24.90;100951.00;;;;5070813;28;20202;-40
2022/07/23 00:40:52;;;;;;;8.90;8.20;;;23.80;63.00;25.00;100947.00;;;;5071077;28;20182;-41
2022/07/23 00:43:21;;;;;;;9.63;8.67;;;23.90;62.40;25.00;100948.00;;;;5071133;28;20170;-40
2022/07/23 00:45:47;;;;;;;11.43;10.27;;;24.00;62.30;25.00;100948.00;;;;5071098;28;20169;-42
2022/07/23 00:48:12;;;;;;;9.67;8.80;;;24.00;62.70;25.00;100946.00;;;;5070544;28;20190;-43
2022/07/23 00:50:38;;;;;;;12.27;11.13;;;24.00;62.20;25.10;100949.00;;;;5070895;28;20173;-42
2022/07/23 00:53:04;;;;;;;11.27;10.17;;;24.00;62.50;25.00;100953.00;;;;5069565;28;20699;-42
2022/07/23 00:55:30;;;;;;;9.97;9.10;;;23.80;62.60;25.00;100950.00;;;;5069503;28;20261;-40
2022/07/23 00:57:56;;;;;;;9.43;8.60;;;23.80;62.50;24.70;100950.00;;;;5070366;28;20304;-43
2022/07/23 01:00:22;;;;;;;10.23;9.17;;;23.90;62.00;25.00;100936.00;;;;5069298;28;20256;-41
2022/07/23 01:02:47;;;;;;;11.80;10.70;;;23.90;61.80;25.00;100942.00;;;;5070703;28;20643;-41
2022/07/23 01:05:13;;;;;;;10.10;9.20;;;24.00;61.90;25.00;100940.00;;;;5070434;28;20197;-41
2022/07/23 01:07:39;;;;;;;9.60;8.73;;;24.10;62.00;25.10;100944.00;;;;5068706;28;20161;-41
2022/07/23 01:10:30;;;;;;;10.57;9.67;;;24.10;61.40;25.10;100935.00;;;;5069057;28;20197;-41
2022/07/23 01:12:51;;;;;;;11.20;10.10;;;24.00;61.20;25.00;100928.00;;;;5070472;28;20672;-42
2022/07/23 01:15:17;;;;;;;13.03;11.93;;;23.90;61.60;25.00;100924.00;;;;5070869;28;20177;-40
2022/07/23 01:17:42;;;;;;;11.73;10.63;;;23.60;62.20;24.80;100934.00;;;;5070692;28;20538;-40
2022/07/23 01:20:09;;;;;;;12.03;10.83;;;23.30;63.90;24.70;100934.00;;;;5070181;28;20197;-42
2022/07/23 01:22:34;;;;;;;11.43;10.33;;;23.20;64.40;24.60;100941.00;;;;5070696;28;20245;-42
2022/07/23 01:25:00;;;;;;;10.80;9.90;;;23.10;64.80;24.60;100935.00;;;;5069238;28;20665;-42
2022/07/23 01:27:26;;;;;;;10.60;9.70;;;23.20;64.30;24.60;100941.00;;;;5070135;28;20158;-41
2022/07/23 01:29:54;;;;;;;9.40;8.50;;;23.40;63.70;24.60;100942.00;;;;5069783;28;20193;-41
2022/07/23 01:32:19;;;;;;;9.93;9.03;;;23.50;63.00;24.70;100947.00;;;;5069697;28;20177;-42
2022/07/23 01:34:45;;;;;;;9.30;8.40;;;23.60;62.90;24.70;100943.00;;;;5069686;28;20174;-42
2022/07/23 01:37:11;;;;;;;8.83;8.03;;;23.70;62.50;24.80;100949.00;;;;5069667;28;20251;-42
2022/07/23 01:39:37;;;;;;;8.90;8.10;;;23.80;62.30;24.80;100949.00;;;;5069698;28;20205;-42
2022/07/23 01:42:02;;;;;;;9.07;8.30;;;23.80;61.70;24.80;100938.00;;;;5069819;28;20172;-42
2022/07/23 01:44:28;;;;;;;9.43;8.53;;;23.80;61.40;24.80;100930.00;;;;5069558;28;20166;-42
2022/07/23 01:46:55;;;;;;;9.80;8.90;;;23.90;61.50;24.80;100918.00;;;;5068850;28;20673;-43
2022/07/23 01:49:21;;;;;;;10.43;9.43;;;23.90;61.60;24.80;100921.00;;;;5067999;28;20702;-42
2022/07/23 01:52:01;;;;;;;9.73;8.80;;;23.90;61.50;24.80;100918.00;;;;5069544;28;20170;-42
2022/07/23 01:54:32;;;;;;;9.70;8.80;;;23.80;62.30;24.80;100927.00;;;;5070085;28;20241;-42
2022/07/23 01:56:58;;;;;;;10.90;9.80;;;23.80;62.60;24.80;100923.00;;;;5069628;28;20694;-42
2022/07/23 01:59:23;;;;;;;10.47;9.57;;;23.60;62.70;24.80;100932.00;;;;5069346;28;20293;-42
2022/07/23 02:01:52;;;;;;;10.03;9.10;;;23.50;63.30;24.80;100930.00;;;;5069267;28;20172;-42
2022/07/23 02:04:19;;;;;;;10.43;9.43;;;23.50;63.40;24.70;100924.00;;;;5069318;28;20793;-42
2022/07/23 02:06:45;;;;;;;9.13;8.33;;;23.40;64.00;24.70;100926.00;;;;5069338;28;20211;-41
2022/07/23 02:09:10;;;;;;;8.83;8.03;;;23.50;63.20;24.70;100922.00;;;;5068719;28;20197;-42
2022/07/23 02:11:36;;;;;;;9.47;8.60;;;23.60;62.60;24.70;100914.00;;;;5069064;28;20185;-41
2022/07/23 02:14:02;;;;;;;8.07;7.37;;;23.70;62.50;24.70;100910.00;;;;5068090;28;20180;-41
2022/07/23 02:16:28;;;;;;;9.77;8.97;;;23.80;61.90;24.70;100924.00;;;;5069103;28;20246;-41
2022/07/23 02:18:53;;;;;;;8.83;8.07;;;23.80;62.00;24.80;100922.00;;;;5068914;28;20255;-41
2022/07/23 02:21:19;;;;;;;8.60;7.90;;;23.80;62.20;24.80;100921.00;;;;5069416;28;20170;-41
2022/07/23 02:23:45;;;;;;;8.27;7.47;;;23.80;61.80;24.80;100931.00;;;;5069377;28;20223;-40
2022/07/23 02:26:11;;;;;;;9.10;8.30;;;23.80;61.30;24.80;100924.00;;;;5069191;28;20182;-41
2022/07/23 02:28:36;;;;;;;8.80;8.00;;;23.80;61.30;24.80;100855.00;;;;5068986;28;20205;-42
2022/07/23 02:31:03;;;;;;;8.03;7.23;;;23.80;61.30;24.80;100916.00;;;;5069094;28;20169;-41
2022/07/23 02:33:29;;;;;;;8.87;8.07;;;23.80;61.10;24.80;100921.00;;;;5069019;28;20665;-41
2022/07/23 02:35:55;;;;;;;8.57;7.70;;;23.90;61.20;24.80;100909.00;;;;5069051;28;20180;-42
2022/07/23 02:38:20;;;;;;;8.10;7.40;;;23.90;61.30;24.80;100921.00;;;;5073192;28;20581;-42
2022/07/23 02:40:46;;;;;;;8.20;7.50;;;23.80;61.10;24.80;100918.00;;;;5068672;28;20216;-41
2022/07/23 02:43:12;;;;;;;8.60;7.70;;;23.80;61.10;24.80;100919.00;;;;5068678;28;20207;-41
2022/07/23 02:45:37;;;;;;;8.87;8.10;;;23.80;61.20;24.80;100925.00;;;;5068604;28;20230;-42
2022/07/23 02:48:03;;;;;;;8.83;8.03;;;23.80;61.10;24.70;100913.00;;;;5067060;28;20173;-42
2022/07/23 02:50:29;;;;;;;7.97;7.27;;;23.80;60.70;24.70;100926.00;;;;5068888;28;20174;-41
2022/07/23 02:52:55;;;;;;;8.67;7.87;;;23.80;60.90;24.70;100926.00;;;;5068654;28;20169;-43
2022/07/23 02:55:21;;;;;;;8.40;7.70;;;23.80;60.80;24.70;100925.00;;;;5068946;28;20193;-42
2022/07/23 02:57:46;;;;;;;8.37;7.67;;;23.80;60.90;24.70;100924.00;;;;5069740;28;20165;-43
2022/07/23 03:00:12;;;;;;;8.40;7.70;;;23.80;60.70;24.70;100924.00;;;;5072728;28;20924;-40
2022/07/23 03:02:38;;;;;;;9.17;8.37;;;23.80;60.90;24.70;100928.00;;;;5072878;28;20166;-41
2022/07/23 03:05:04;;;;;;;8.43;7.63;;;23.80;61.50;24.70;100923.00;;;;5072887;28;20629;-41
2022/07/23 03:07:30;;;;;;;8.53;7.83;;;23.80;61.40;24.70;100923.00;;;;5072193;28;20679;-41
2022/07/23 03:09:56;;;;;;;8.30;7.60;;;23.80;60.70;24.70;100922.00;;;;5072648;28;20326;-41
2022/07/23 03:12:22;;;;;;;7.73;7.03;;;23.80;60.60;24.70;100917.00;;;;5072957;28;20181;-41
2022/07/23 03:14:47;;;;;;;7.73;7.03;;;23.80;60.60;24.60;100922.00;;;;5072575;28;20680;-40
2022/07/23 03:17:13;;;;;;;8.30;7.60;;;23.80;60.30;24.60;100920.00;;;;5072546;28;20174;-41
2022/07/23 03:19:39;;;;;;;8.50;7.70;;;23.70;60.60;24.70;100923.00;;;;5072238;28;20281;-41
2022/07/23 03:22:05;;;;;;;7.70;7.00;;;23.70;60.50;24.70;100925.00;;;;5073020;28;20227;-41
2022/07/23 03:27:15;;;;;;;7.73;6.90;;;23.80;60.20;24.60;100930.00;;;;5072259;28;20200;-42
2022/07/23 03:29:41;;;;;;;8.60;7.57;;;23.70;60.10;24.60;100929.00;;;;5072127;28;20233;-42
2022/07/23 03:32:07;;;;;;;7.60;6.90;;;23.70;60.20;24.60;100931.00;;;;5072412;28;20607;-42
2022/07/23 03:34:32;;;;;;;9.73;6.50;;;23.70;60.20;24.60;100930.00;;;;5081754;28;20239;-41
2022/07/23 03:36:58;;;;;;;9.30;7.10;;;23.70;60.90;24.50;100930.00;;;;5071983;28;20196;-42
2022/07/23 03:39:24;;;;;;;7.40;6.63;;;23.60;61.10;24.50;100934.00;;;;5071322;28;20542;-41
2022/07/23 03:41:50;;;;;;;7.70;6.77;;;23.70;60.50;24.50;100937.00;;;;5071491;28;20162;-42
2022/07/23 03:44:15;;;;;;;8.30;6.60;;;23.60;60.30;24.50;100934.00;;;;5071623;28;20190;-41
2022/07/23 03:46:41;;;;;;;8.80;7.20;;;23.60;60.30;24.50;100936.00;;;;5071636;28;20170;-41
2022/07/23 03:49:07;;;;;;;8.53;6.67;;;23.60;60.20;24.50;100927.00;;;;5071041;28;20254;-41
2022/07/23 03:51:33;;;;;;;8.90;7.20;;;23.60;60.20;24.50;100939.00;;;;5071516;28;20178;-41
2022/07/23 03:53:58;;;;;;;8.47;6.37;;;23.60;60.20;24.50;100940.00;;;;5071122;28;20169;-42
2022/07/23 03:56:24;;;;;;;7.17;6.57;;;23.60;60.00;24.50;100936.00;;;;5071427;28;20224;-41
2022/07/23 03:58:50;;;;;;;7.37;6.67;;;23.60;60.10;24.50;100926.00;;;;5071252;28;20205;-41
2022/07/23 04:01:16;;;;;;;8.10;6.53;;;23.50;60.00;24.50;100924.00;;;;5071367;28;20194;-42
2022/07/23 04:03:41;;;;;;;7.23;6.50;;;23.50;60.00;24.50;100935.00;;;;5071239;28;20174;-41
2022/07/23 04:06:07;;;;;;;7.53;6.83;;;23.50;59.90;24.50;100931.00;;;;5071145;28;20215;-42
2022/07/23 04:08:33;;;;;;;6.50;6.00;;;23.50;59.90;24.50;100928.00;;;;5070628;28;20742;-42
2022/07/23 04:10:58;;;;;;;7.33;6.17;;;23.50;59.90;24.40;100918.00;;;;5069663;28;20620;-42
2022/07/23 04:13:24;;;;;;;6.90;6.30;;;23.50;59.90;24.40;100922.00;;;;5070421;28;20177;-41
2022/07/23 04:15:50;;;;;;;6.60;6.10;;;23.50;59.90;24.40;100930.00;;;;5071701;28;20227;-41
2022/07/23 04:18:17;;;;;;;6.43;5.93;;;23.50;59.90;24.40;100936.00;;;;5071048;28;20197;-41
2022/07/23 04:20:46;;;;;;;6.27;5.70;;;23.50;60.00;24.40;100937.00;;;;5071192;28;20162;-42
2022/07/23 04:23:12;;;;;;;7.60;6.90;;;23.50;59.90;24.40;100942.00;;;;5070625;28;20166;-42
2022/07/23 04:25:37;;;;;;;6.20;5.60;;;23.40;59.90;24.40;100947.00;;;;5070696;28;20273;-42
2022/07/23 04:28:03;;;;;;;7.13;6.47;;;23.40;59.90;24.40;100943.00;;;;5070696;28;20248;-42
2022/07/23 04:30:29;;;;;;;6.60;5.87;;;23.40;59.80;24.40;100942.00;;;;5070688;28;20172;-42
2022/07/23 04:32:55;;;;;;;6.83;5.87;;;23.40;60.10;24.30;100947.00;;;;5070624;28;20215;-42
2022/07/23 04:35:21;;;;;;;6.50;5.43;;;23.40;60.30;24.30;100946.00;;;;5070828;28;20170;-42
2022/07/23 04:37:46;;;;;;;5.37;4.87;;;23.40;60.40;24.30;100958.00;;;;5070576;28;20177;-42
2022/07/23 04:40:12;;;;;;;5.63;5.20;;;23.40;60.30;24.30;100958.00;;;;5070396;28;20209;-42
2022/07/23 04:42:38;;;;;;;6.03;5.40;;;23.40;60.40;24.30;100961.00;;;;5070517;28;20165;-42
2022/07/23 04:45:05;;;;;;;5.57;5.07;;;23.40;60.00;24.30;100959.00;;;;5070526;28;20173;-42
2022/07/23 04:47:30;;;;;;;10.40;5.80;;;23.40;60.10;24.20;100963.00;;;;5070100;28;20173;-42
2022/07/23 04:49:57;;;;;;;6.07;5.57;;;23.40;60.10;24.20;100972.00;;;;5074502;28;20197;-42
2022/07/23 04:52:23;;;;;;;6.00;5.50;;;23.30;60.00;24.20;100972.00;;;;5070920;28;20638;-41
2022/07/23 04:54:49;;;;;;;6.93;6.27;;;23.30;60.40;24.20;100975.00;;;;5069887;28;20191;-42
2022/07/23 04:57:14;;;;;;;6.30;5.70;;;23.30;60.40;24.20;100981.00;;;;5070510;28;20240;-42
2022/07/23 04:59:40;;;;;;;6.77;6.07;;;23.30;60.40;24.20;100981.00;;;;5070321;28;20205;-42
2022/07/23 05:02:06;;;;;;;5.87;5.37;;;23.30;60.30;24.20;100983.00;;;;5070439;28;20165;-40
2022/07/23 05:04:31;;;;;;;5.77;5.10;;;23.30;60.60;24.20;100984.00;;;;5069991;28;20231;-41
2022/07/23 05:06:58;;;;;;;6.20;5.60;;;23.30;60.40;24.20;100991.00;;;;5070560;28;20165;-42
2022/07/23 05:09:23;;;;;;;6.90;6.30;;;23.30;60.70;24.20;100989.00;;;;5070008;28;20194;-41
2022/07/23 05:11:49;;;;;;;5.73;5.23;;;23.20;60.90;24.20;100994.00;;;;5070409;28;20220;-42
2022/07/23 05:14:15;;;;;;;6.13;5.63;;;23.20;61.70;24.10;101002.00;;;;5069609;28;20176;-42
2022/07/23 05:16:41;;;;;;;5.50;5.07;;;23.20;60.90;24.10;101002.00;;;;5069945;28;20177;-42
2022/07/23 05:19:06;;;;;;;5.10;4.70;;;23.20;61.00;24.10;101011.00;;;;5069370;28;20212;-41
2022/07/23 05:21:32;;;;;;;5.10;4.60;;;23.20;60.60;24.10;101008.00;;;;5068529;28;20170;-41
2022/07/23 05:23:59;;;;;;;5.53;5.00;;;23.20;60.40;24.10;101018.00;;;;5069574;28;20166;-41
2022/07/23 05:26:25;;;;;;;5.57;5.07;;;23.20;60.40;24.10;101015.00;;;;5069968;28;20174;-40
2022/07/23 05:28:51;;;;;;;5.60;5.10;;;23.20;60.50;24.00;101011.00;;;;5072850;28;20201;-40
2022/07/23 05:31:17;;;;;;;5.07;4.67;;;23.20;60.50;24.00;101011.00;;;;5070528;28;20545;-41
2022/07/23 05:33:42;;;;;;;5.93;5.43;;;23.20;60.60;24.00;101014.00;;;;5069028;28;20169;-41
2022/07/23 05:36:08;;;;;;;9.53;6.17;;;23.20;61.40;24.00;101007.00;;;;5068844;28;20176;-42
2022/07/23 05:38:34;;;;;;;15.47;6.90;;;23.10;61.70;24.00;101016.00;;;;5067909;28;20197;-40
2022/07/23 05:41:00;;;;;;;9.33;5.67;;;23.00;61.70;24.00;101017.00;;;;5074052;28;20662;-41
2022/07/23 05:43:26;;;;;;;9.20;5.20;;;23.00;61.70;24.00;101015.00;;;;5069116;28;20607;-41
2022/07/23 05:45:52;;;;;;;6.00;5.40;;;23.00;61.80;24.00;101017.00;;;;5068066;28;20172;-41
2022/07/23 05:48:18;;;;;;;6.10;5.60;;;23.10;61.00;24.00;101016.00;;;;5069252;28;20182;-42
2022/07/23 05:50:43;;;;;;;7.90;5.80;;;23.10;61.10;24.00;101013.00;;;;5069514;28;20166;-40
2022/07/23 05:53:09;;;;;;;7.50;5.80;;;23.10;61.70;24.00;101013.00;;;;5069111;28;20181;-41
2022/07/23 05:55:35;;;;;;;6.63;5.23;;;23.00;61.30;24.00;101017.00;;;;5068622;28;20161;-40
2022/07/23 05:58:01;;;;;;;6.47;4.90;;;23.10;61.20;24.00;101024.00;;;;5069250;28;20791;-40
2022/07/23 06:00:28;;;;;;;6.10;4.90;;;23.10;61.00;24.00;101023.00;;;;5068983;28;20205;-41
2022/07/23 06:02:54;;;;;;;7.00;6.30;;;23.00;61.50;24.00;101016.00;;;;5069015;28;20169;-40
2022/07/23 06:05:20;;;;;;;6.87;6.27;;;22.90;62.50;23.90;101015.00;;;;5068546;28;20236;-42
2022/07/23 06:07:46;;;;;;;8.00;5.97;;;22.90;62.30;23.90;101017.00;;;;5068957;28;20537;-40
2022/07/23 06:10:11;;;;;;;8.07;6.40;;;23.00;62.60;23.90;101025.00;;;;5068945;28;20225;-40
2022/07/23 06:12:37;;;;;;;7.00;6.40;;;22.90;62.90;23.90;101026.00;;;;5069095;28;20180;-42
2022/07/23 06:15:03;;;;;;;6.73;6.13;;;23.00;62.80;23.90;101023.00;;;;5068538;28;20208;-41
2022/07/23 06:17:29;;;;;;;7.83;6.20;;;22.90;63.10;23.80;101011.00;;;;5068863;28;20174;-42
2022/07/23 06:19:55;;;;;;;7.27;6.07;;;22.80;63.20;23.80;101020.00;;;;5068924;28;20197;-41
2022/07/23 06:22:21;;;;;;;7.43;6.73;;;22.80;63.60;23.80;101013.00;;;;5069071;28;20154;-40
2022/07/23 06:24:47;;;;;;;6.00;5.40;;;22.70;64.00;23.80;101025.00;;;;5067756;28;20185;-41
2022/07/23 06:27:13;;;;;;;5.57;5.10;;;22.80;62.50;23.80;101020.00;;;;5068639;28;20709;-41
2022/07/23 06:29:40;;;;;;;6.40;5.80;;;22.80;62.40;23.80;101022.00;;;;5068674;28;20277;-42
2022/07/23 06:32:06;;;;;;;7.10;6.40;;;22.80;62.90;23.80;101027.00;;;;5068316;28;20658;-40
2022/07/23 06:34:33;;;;;;;5.33;4.83;;;22.80;63.70;23.80;101037.00;;;;5067930;28;20173;-41
2022/07/23 06:36:59;;;;;;;5.27;4.87;;;22.80;61.90;23.70;101026.00;;;;5068474;28;20170;-42
2022/07/23 06:39:25;;;;;;;4.93;4.43;;;22.80;62.00;23.70;101039.00;;;;5068444;28;20197;-41
2022/07/23 06:41:50;;;;;;;5.93;5.43;;;22.80;61.50;23.70;101037.00;;;;5068885;28;20161;-41
2022/07/23 06:44:16;;;;;;;5.20;4.70;;;22.80;62.70;23.70;101040.00;;;;5068637;28;20166;-42
2022/07/23 06:46:42;;;;;;;4.90;4.40;;;22.80;62.10;23.70;101033.00;;;;5068637;28;20169;-41
2022/07/23 06:49:08;;;;;;;6.57;5.97;;;22.70;61.40;23.70;101040.00;;;;5068162;28;20195;-41
2022/07/23 06:51:34;;;;;;;5.20;4.70;;;22.80;64.00;23.70;101035.00;;;;5069270;28;20264;-41
2022/07/23 06:53:59;;;;;;;7.80;7.10;;;22.80;61.60;23.70;101040.00;;;;5068169;28;20180;-41
2022/07/23 06:56:25;;;;;;;6.70;6.10;;;22.80;64.50;23.70;101041.00;;;;5068116;28;20170;-41
2022/07/23 06:58:51;;;;;;;5.07;4.67;;;22.70;64.50;23.60;101027.00;;;;5066659;28;20204;-41
2022/07/23 07:01:17;;;;;;;7.37;6.70;;;22.70;62.60;23.70;101033.00;;;;5067388;28;20169;-41
2022/07/23 07:03:43;;;;;;;7.23;6.40;;;22.70;64.80;23.70;101036.00;;;;5018672;28;20659;-41
2022/07/23 07:06:08;;;;;;;5.70;5.00;;;22.70;64.10;23.70;101035.00;;;;5080465;28;20169;-42
2022/07/23 07:08:34;;;;;;;5.87;5.37;;;22.70;63.10;23.60;101042.00;;;;5088288;28;20196;-42
2022/07/23 07:11:00;;;;;;;6.80;6.17;;;22.70;63.30;23.60;101040.00;;;;5088311;28;20180;-41
2022/07/23 07:13:26;;;;;;;6.00;5.40;;;22.70;64.10;23.60;101038.00;;;;5088922;28;20218;-41
2022/07/23 07:15:51;;;;;;;5.37;4.83;;;22.70;63.60;23.60;101040.00;;;;5088876;28;20649;-40
2022/07/23 07:18:17;;;;;;;6.90;6.20;;;22.70;62.80;23.60;101049.00;;;;5092486;28;20185;-41
2022/07/23 07:20:43;;;;;;;6.23;5.60;;;22.70;64.80;23.60;101047.00;;;;5087577;28;20177;-41
2022/07/23 07:23:09;;;;;;;5.30;4.80;;;22.40;64.90;23.50;101052.00;;;;5088545;28;20165;-43
2022/07/23 07:25:34;;;;;;;4.97;4.47;;;22.50;63.40;23.50;101045.00;;;;5088277;28;20645;-41
2022/07/23 07:28:00;;;;;;;7.17;6.47;;;22.60;63.20;23.50;101054.00;;;;5088656;28;20218;-42
2022/07/23 07:30:26;;;;;;;6.67;5.87;;;22.60;64.50;23.50;101053.00;;;;5088501;28;20169;-41
2022/07/23 07:32:52;;;;;;;5.80;4.80;;;22.60;64.20;23.50;101064.00;;;;5102735;28;20612;-41
2022/07/23 07:35:18;;;;;;;6.27;5.67;;;22.60;62.80;23.60;101060.00;;;;5108556;28;20183;-41
2022/07/23 07:37:43;;;;;;;5.83;5.27;;;22.70;64.40;23.50;101061.00;;;;5108433;28;20282;-40
2022/07/23 07:40:10;;;;;;;5.30;4.80;;;22.70;62.70;23.50;101059.00;;;;5108813;28;20696;-42
2022/07/23 07:42:47;;;;;;;6.23;5.63;;;22.70;62.50;23.60;101068.00;;;;5109007;28;20202;-41
2022/07/23 07:45:13;;;;;;;5.37;4.87;;;22.70;63.90;23.60;101073.00;;;;5111610;28;20192;-40
2022/07/23 07:47:39;;;;;;;7.97;5.77;;;22.80;62.40;23.50;101083.00;;;;5100059;28;20205;-41
2022/07/23 07:50:05;;;;;;;6.17;5.60;;;22.70;62.30;23.50;101078.00;;;;5091798;28;20265;-43
2022/07/23 07:52:31;;;;;;;6.57;5.83;;;22.70;62.90;23.50;101070.00;;;;5092134;28;20173;-41
2022/07/23 07:54:56;;;;;;;6.30;5.70;;;22.70;62.80;23.50;101071.00;;;;5092144;28;20180;-41
2022/07/23 07:57:22;;;;;;;8.47;6.67;;;22.80;63.10;23.50;101069.00;;;;5091920;28;20192;-42
2022/07/23 07:59:48;;;;;;;7.80;5.43;;;22.60;64.90;23.60;101085.00;;;;5091488;28;20699;-40
2022/07/23 08:02:14;;;;;;;6.80;6.10;;;22.70;65.20;23.50;101074.00;;;;5091929;28;20161;-40
2022/07/23 08:04:39;;;;;;;6.33;5.80;;;22.70;63.80;23.50;101088.00;;;;5033396;28;20690;-42
2022/07/23 08:07:05;;;;;;;6.37;5.77;;;22.70;63.60;23.50;101090.00;;;;5111982;28;20164;-41
2022/07/23 08:09:31;;;;;;;8.37;6.10;;;22.70;64.70;23.60;101103.00;;;;5111913;28;20188;-42
2022/07/23 08:11:56;;;;;;;5.77;5.17;;;22.70;64.30;23.60;101091.00;;;;5112000;28;20686;-42
2022/07/23 08:14:22;;;;;;;6.20;5.60;;;22.80;63.60;23.60;101086.00;;;;5112032;28;20168;-42
2022/07/23 08:16:48;;;;;;;6.33;4.63;;;22.80;64.30;23.60;101091.00;;;;5111973;28;20176;-42
2022/07/23 08:19:14;;;;;;;6.73;5.17;;;22.80;64.00;23.70;101088.00;;;;5111626;28;20298;-41
2022/07/23 08:21:39;;;;;;;7.57;6.50;;;22.80;64.50;23.70;101091.00;;;;5094076;28;20176;-40
2022/07/23 08:24:05;;;;;;;8.30;7.40;;;22.70;65.40;23.60;101079.00;;;;5091387;28;20196;-42
2022/07/23 08:26:31;;;;;;;10.33;7.80;;;22.40;65.20;23.50;101096.00;;;;5091043;28;20181;-42
2022/07/23 08:28:57;;;;;;;7.43;5.60;;;22.20;65.40;23.40;101092.00;;;;5090839;28;20193;-41
2022/07/23 08:31:23;;;;;;;8.37;6.63;;;22.30;64.90;23.50;101095.00;;;;5091443;28;20252;-42
2022/07/23 08:33:49;;;;;;;7.60;5.50;;;22.40;65.50;23.50;101101.00;;;;5094145;28;20243;-41
2022/07/23 08:36:15;;;;;;;8.13;6.20;;;22.40;65.40;23.50;101105.00;;;;5091157;28;20749;-41
2022/07/23 08:38:43;;;;;;;9.53;6.70;;;22.50;65.00;23.50;101104.00;;;;5090725;28;20200;-40
2022/07/23 08:41:08;;;;;;;6.37;5.60;;;22.60;65.40;23.50;101106.00;;;;5091086;28;20164;-41
2022/07/23 08:43:35;;;;;;;7.97;5.67;;;22.60;65.20;23.50;101103.00;;;;5090801;28;20161;-41
2022/07/23 08:46:02;;;;;;;8.27;5.37;;;22.60;65.10;23.60;101109.00;;;;5094496;28;20253;-42
2022/07/23 08:48:30;;;;;;;5.77;5.27;;;22.70;65.30;23.60;101102.00;;;;5089597;28;20188;-42
2022/07/23 08:50:58;;;;;;;5.53;5.03;;;22.70;65.40;23.60;101108.00;;;;5090675;28;20165;-42
2022/07/23 08:53:25;;;;;;;8.30;6.83;;;22.70;65.50;23.60;101096.00;;;;5091386;28;20178;-41
2022/07/23 08:55:53;;;;;;;7.17;5.00;;;22.50;64.60;23.50;101106.00;;;;5090190;28;20173;-41
2022/07/23 08:58:19;;;;;;;7.00;6.03;;;22.60;65.10;23.60;101037.00;;;;5090548;28;20250;-41
2022/07/23 09:00:45;;;;;;;8.33;7.53;;;22.70;65.30;23.60;101122.00;;;;5090798;28;20825;-42
2022/07/23 09:03:16;;;;;;;8.53;6.50;;;22.60;64.90;23.50;101115.00;;;;5033710;28;20173;-43
2022/07/23 09:05:42;;;;;;;9.77;7.40;;;22.50;66.20;23.50;101128.00;;;;5093489;28;20515;-40
2022/07/23 09:08:14;;;;;;;10.90;6.93;;;22.50;65.70;23.50;101122.00;;;;5090816;28;20173;-41
2022/07/23 09:10:53;;;;;;;10.83;6.43;;;22.60;66.10;23.50;101122.00;;;;5090572;28;20165;-41
2022/07/23 09:13:27;;;;;;;9.37;5.97;;;22.70;66.10;23.60;101132.00;;;;5090427;28;20165;-40
2022/07/23 09:15:55;;;;;;;9.10;6.20;;;22.80;65.50;23.60;101124.00;;;;5091529;28;20180;-41
2022/07/23 09:18:38;;;;;;;8.83;7.13;;;22.80;65.60;23.60;101120.00;;;;5101724;28;20219;-42
2022/07/23 09:21:16;;;;;;;8.77;6.90;;;22.80;65.20;23.60;101118.00;;;;5100971;28;20208;-40
2022/07/23 09:23:48;;;;;;;7.33;6.30;;;22.80;65.20;23.60;101124.00;;;;5090547;28;20161;-40
2022/07/23 09:26:32;;;;;;;8.93;7.97;;;22.80;64.70;23.70;101127.00;;;;5089453;28;20189;-40
2022/07/23 09:29:09;;;;;;;7.70;6.90;;;22.80;64.00;23.70;101128.00;;;;5090224;28;20196;-42
2022/07/23 09:31:55;;;;;;;7.47;6.70;;;22.80;64.60;23.70;101116.00;;;;5090786;28;20165;-40
2022/07/23 09:34:25;;;;;;;6.67;5.97;;;22.80;64.00;23.70;101121.00;;;;5090305;28;20165;-42
2022/07/23 09:36:55;;;;;;;7.17;6.40;;;22.80;64.10;23.70;101121.00;;;;5089569;28;20267;-41
2022/07/23 09:39:30;;;;;;;8.63;7.60;;;22.80;63.90;23.60;101123.00;;;;5089713;28;20247;-41
2022/07/23 09:41:56;;;;;;;9.07;8.30;;;22.60;63.20;23.60;101130.00;;;;5090082;28;20173;-41
2022/07/23 09:44:22;;;;;;;8.63;7.83;;;22.50;62.70;23.50;101136.00;;;;5089930;28;20649;-42
2022/07/23 09:46:49;;;;;;;9.47;8.50;;;22.40;62.50;23.50;101139.00;;;;5089869;28;20173;-40
2022/07/23 09:49:20;;;;;;;7.90;7.30;;;22.40;63.10;23.50;101141.00;;;;5089414;28;20696;-39
2022/07/23 09:51:54;;;;;;;8.07;7.33;;;22.60;63.20;23.50;101131.00;;;;5090125;28;20173;-39
2022/07/23 09:54:22;;;;;;;7.40;6.80;;;22.50;63.30;23.50;101139.00;;;;5090341;28;20220;-40
2022/07/23 09:56:48;;;;;;;9.33;8.43;;;22.60;64.00;23.50;101135.00;;;;5090269;28;20264;-41
2022/07/23 09:59:17;;;;;;;8.77;8.07;;;22.70;63.40;23.60;101105.00;;;;5090103;28;20745;-41
2022/07/23 10:01:44;;;;;;;7.90;7.20;;;22.70;63.40;23.60;101129.00;;;;5072606;28;20351;-41
2022/07/23 10:04:11;;;;;;;7.23;6.53;;;22.80;63.00;23.60;101132.00;;;;5089006;28;20204;-41
2022/07/23 10:06:39;;;;;;;7.90;7.10;;;22.90;63.50;23.70;101137.00;;;;5089606;28;20216;-41
2022/07/23 10:09:05;;;;;;;6.80;6.30;;;22.90;63.00;23.70;101131.00;;;;5088716;28;20241;-41
2022/07/23 10:11:30;;;;;;;8.43;7.73;;;22.90;63.10;23.70;101114.00;;;;5088423;28;20180;-41
2022/07/23 10:13:58;;;;;;;7.10;6.50;;;22.80;62.70;23.70;101120.00;;;;5056169;28;20617;-41
2022/07/23 10:16:24;;;;;;;7.70;7.03;;;22.80;63.10;23.70;101116.00;;;;5090326;28;20184;-41
2022/07/23 10:18:50;;;;;;;7.33;6.77;;;22.80;62.80;23.70;101110.00;;;;5071286;28;20197;-41
2022/07/23 10:21:24;;;;;;;8.90;6.70;;;22.90;62.80;23.80;101122.00;;;;5089679;28;20514;-41
2022/07/23 10:24:20;;;;;;;8.10;7.33;;;22.90;60.90;23.50;101107.00;;;;5072379;28;20165;-41
2022/07/23 10:27:28;;;;;;;8.73;7.50;;;22.80;60.10;23.70;101115.00;;;;5088054;28;20219;-40
2022/07/23 10:30:11;;;;;;;6.67;6.17;;;22.80;60.40;23.70;101106.00;;;;5088814;28;20200;-40
2022/07/23 10:33:11;;;;;;;7.57;6.87;;;22.90;61.60;23.70;101094.00;;;;5088853;28;20178;-41
2022/07/23 10:35:48;;;;;;;7.77;7.07;;;22.90;59.90;23.70;101099.00;;;;5092106;28;20179;-41
2022/07/23 10:38:45;;;;;;;7.20;6.50;;;22.90;59.40;23.70;101112.00;;;;5104946;28;20193;-42
2022/07/23 10:41:11;;;;;;;6.90;6.20;;;22.90;58.60;23.70;101107.00;;;;5092447;28;20165;-40
2022/07/23 10:43:37;;;;;;;6.50;6.00;;;22.90;59.10;23.80;101116.00;;;;5091797;28;20563;-41
2022/07/23 10:46:51;;;;;;;7.30;6.23;;;23.00;59.60;23.80;101111.00;;;;5089325;28;20666;-42
2022/07/23 10:49:28;;;;;;;6.70;6.00;;;23.10;58.90;23.80;101103.00;;;;5094263;28;20215;-41